createdAt,value
2022-11-19T00:01:26.263Z,33.43
2022-11-19T00:03:54.824Z,33.38
2022-11-19T00:06:27.515Z,33.23
2022-11-19T00:08:56.194Z,33.72
2022-11-19T00:11:26.419Z,33.28
2022-11-19T00:13:54.599Z,33.73
2022-11-19T00:16:22.745Z,33.40
2022-11-19T00:18:50.953Z,33.24
2022-11-19T00:21:19.133Z,33.56
2022-11-19T00:23:47.314Z,33.10
2022-11-19T00:26:15.492Z,32.80
2022-11-19T00:28:43.571Z,33.09
2022-11-19T00:31:13.177Z,32.94
2022-11-19T00:33:43.154Z,33.46
2022-11-19T00:36:14.758Z,33.57
2022-11-19T00:38:44.058Z,33.09
2022-11-19T00:41:12.287Z,33.52
2022-11-19T00:43:40.518Z,34.03
2022-11-19T00:46:09.137Z,33.21
2022-11-19T00:48:37.487Z,33.11
2022-11-19T00:51:07.636Z,33.30
2022-11-19T00:53:35.850Z,33.63
2022-11-19T00:56:07.554Z,33.87
2022-11-19T00:58:36.135Z,33.51
2022-11-19T01:01:05.386Z,33.08
2022-11-19T01:03:34.647Z,34.13
2022-11-19T01:06:03.334Z,33.64
2022-11-19T01:08:31.717Z,32.68
2022-11-19T01:11:16.678Z,33.82
2022-11-19T01:13:44.858Z,33.89
2022-11-19T01:16:16.002Z,33.72
2022-11-19T01:18:46.627Z,33.58
2022-11-19T01:21:15.737Z,33.69
2022-11-19T01:23:44.861Z,34.51
2022-11-19T01:26:14.034Z,34.90
2022-11-19T01:28:42.519Z,35.36
2022-11-19T01:31:11.825Z,35.53
2022-11-19T01:33:40.532Z,36.40
2022-11-19T01:36:13.297Z,36.06
2022-11-19T01:38:41.783Z,35.99
2022-11-19T01:41:10.468Z,35.63
2022-11-19T01:43:54.539Z,34.76
2022-11-19T01:46:25.132Z,33.68
2022-11-19T01:49:08.526Z,33.19
2022-11-19T01:51:41.522Z,33.85
2022-11-19T01:54:31.638Z,33.55
2022-11-19T01:57:06.001Z,33.52
2022-11-19T01:59:34.785Z,33.66
2022-11-19T02:02:02.932Z,33.46
2022-11-19T02:04:32.281Z,33.64
2022-11-19T02:07:00.441Z,34.29
2022-11-19T02:09:29.718Z,33.87
2022-11-19T02:12:22.661Z,33.98
2022-11-19T02:15:02.712Z,34.42
2022-11-19T02:17:36.622Z,33.93
2022-11-19T02:20:23.530Z,35.06
2022-11-19T02:23:10.539Z,34.38
2022-11-19T02:25:59.693Z,34.10
2022-11-19T02:28:55.799Z,34.54
2022-11-19T02:31:31.345Z,33.78
2022-11-19T02:34:05.767Z,34.73
2022-11-19T02:37:10.584Z,34.69
2022-11-19T02:39:44.182Z,35.49
2022-11-19T02:42:37.127Z,34.66
2022-11-19T02:45:40.204Z,35.30
2022-11-19T02:48:21.277Z,35.24
2022-11-19T02:50:52.817Z,35.44
2022-11-19T02:53:22.338Z,35.94
2022-11-19T02:55:50.469Z,36.07
2022-11-19T02:58:22.155Z,36.02
2022-11-19T03:00:51.170Z,35.86
2022-11-19T03:03:21.482Z,36.04
2022-11-19T03:05:55.356Z,35.70
2022-11-19T03:08:23.891Z,35.97
2022-11-19T03:11:16.607Z,36.19
2022-11-19T03:14:10.183Z,35.70
2022-11-19T03:17:01.566Z,34.84
2022-11-19T03:20:04.874Z,35.55
2022-11-19T03:23:02.214Z,35.36
2022-11-19T03:25:41.252Z,36.74
2022-11-19T03:28:15.507Z,36.73
2022-11-19T03:30:45.788Z,36.17
2022-11-19T03:33:22.660Z,35.40
2022-11-19T03:35:56.182Z,36.51
2022-11-19T03:38:30.453Z,37.98
2022-11-19T03:41:00.500Z,36.11
2022-11-19T03:43:35.283Z,36.44
2022-11-19T03:46:06.813Z,35.76
2022-11-19T03:48:37.366Z,35.52
2022-11-19T03:51:13.680Z,35.15
2022-11-19T03:53:42.593Z,34.95
2022-11-19T03:56:17.205Z,35.57
2022-11-19T03:58:47.082Z,36.78
2022-11-19T04:01:16.032Z,36.41
2022-11-19T04:03:44.189Z,35.99
2022-11-19T04:06:12.706Z,35.03
2022-11-19T04:08:40.958Z,35.54
2022-11-19T04:13:35.985Z,35.12
2022-11-19T04:16:04.364Z,36.18
2022-11-19T04:18:32.548Z,34.71
2022-11-19T04:21:01.135Z,34.66
2022-11-19T04:23:29.312Z,35.68
2022-11-19T04:25:57.490Z,34.89
2022-11-19T04:28:25.766Z,34.71
2022-11-19T04:30:53.843Z,35.13
2022-11-19T04:33:22.025Z,36.56
2022-11-19T04:35:50.303Z,35.68
2022-11-19T04:38:18.379Z,36.15
2022-11-19T04:40:47.175Z,36.05
2022-11-19T04:43:15.672Z,35.92
2022-11-19T04:45:43.842Z,35.49
2022-11-19T04:48:12.012Z,34.59
2022-11-19T04:50:40.189Z,35.04
2022-11-19T04:53:08.275Z,35.27
2022-11-19T04:55:36.548Z,35.04
2022-11-19T04:58:04.837Z,34.98
2022-11-19T05:00:33.110Z,34.99
2022-11-19T05:03:01.188Z,34.85
2022-11-19T05:05:29.464Z,35.20
2022-11-19T05:07:57.851Z,35.32
2022-11-19T05:10:26.035Z,34.89
2022-11-19T05:12:54.408Z,35.50
2022-11-19T05:15:22.588Z,35.47
2022-11-19T05:17:50.767Z,34.24
2022-11-19T05:20:19.052Z,34.14
2022-11-19T05:22:47.124Z,34.22
2022-11-19T05:25:15.402Z,33.97
2022-11-19T05:27:43.581Z,34.28
2022-11-19T05:30:12.475Z,34.42
2022-11-19T05:32:40.553Z,33.68
2022-11-19T05:35:09.318Z,34.33
2022-11-19T05:37:37.423Z,34.53
2022-11-19T05:40:06.311Z,34.74
2022-11-19T05:42:34.697Z,34.89
2022-11-19T05:45:02.773Z,34.61
2022-11-19T05:47:31.365Z,34.77
2022-11-19T05:49:59.641Z,34.83
2022-11-19T05:52:27.831Z,34.61
2022-11-19T05:54:56.124Z,34.73
2022-11-19T05:57:24.382Z,34.97
2022-11-19T05:59:52.591Z,35.21
2022-11-19T06:02:20.846Z,35.38
2022-11-19T06:04:49.029Z,35.66
2022-11-19T06:07:17.427Z,36.16
2022-11-19T06:09:45.682Z,35.99
2022-11-19T06:12:13.889Z,36.67
2022-11-19T06:14:41.950Z,35.38
2022-11-19T06:17:10.327Z,35.23
2022-11-19T06:19:38.400Z,35.53
2022-11-19T06:22:06.704Z,35.76
2022-11-19T06:24:34.960Z,35.24
2022-11-19T06:27:03.239Z,34.29
2022-11-19T06:29:31.418Z,35.80
2022-11-19T06:31:59.597Z,36.11
2022-11-19T06:34:28.184Z,35.57
2022-11-19T06:36:56.464Z,35.60
2022-11-19T06:39:24.743Z,35.76
2022-11-19T06:41:52.928Z,35.98
2022-11-19T06:44:21.004Z,35.60
2022-11-19T06:46:49.177Z,35.46
2022-11-19T06:49:20.349Z,35.35
2022-11-19T06:51:48.708Z,35.07
2022-11-19T06:54:16.889Z,34.96
2022-11-19T06:56:45.477Z,35.30
2022-11-19T06:59:13.761Z,35.11
2022-11-19T07:01:41.989Z,34.88
2022-11-19T07:04:11.346Z,35.01
2022-11-19T07:06:39.420Z,34.53
2022-11-19T07:09:07.490Z,34.43
2022-11-19T07:11:35.878Z,35.15
2022-11-19T07:14:04.157Z,34.27
2022-11-19T07:16:35.224Z,34.63
2022-11-19T07:19:06.041Z,34.28
2022-11-19T07:21:34.938Z,33.86
2022-11-19T07:24:06.000Z,32.32
2022-11-19T07:26:35.641Z,30.86
2022-11-19T07:29:06.908Z,29.97
2022-11-19T07:31:35.524Z,28.83
2022-11-19T07:34:09.110Z,28.53
2022-11-19T07:36:38.049Z,28.05
2022-11-19T07:39:06.505Z,27.01
2022-11-19T07:41:34.786Z,25.27
2022-11-19T07:44:03.390Z,24.72
2022-11-19T07:46:31.766Z,22.91
2022-11-19T07:49:00.657Z,21.82
2022-11-19T07:51:28.937Z,22.12
2022-11-19T07:53:57.417Z,20.76
2022-11-19T07:56:25.817Z,20.74
2022-11-19T07:58:54.291Z,20.41
2022-11-19T08:01:24.179Z,20.59
2022-11-19T08:03:56.306Z,20.15
2022-11-19T08:06:28.562Z,20.02
2022-11-19T08:08:57.542Z,19.54
2022-11-19T08:11:25.921Z,18.64
2022-11-19T08:13:54.303Z,17.80
2022-11-19T08:16:22.589Z,16.82
2022-11-19T08:18:50.772Z,15.79
2022-11-19T08:21:18.946Z,15.91
2022-11-19T08:23:47.224Z,16.48
2022-11-19T08:26:16.527Z,15.49
2022-11-19T08:28:44.604Z,16.06
2022-11-19T08:31:13.191Z,15.44
2022-11-19T08:33:41.375Z,15.31
2022-11-19T08:36:09.654Z,15.29
2022-11-19T08:38:39.004Z,15.58
2022-11-19T08:41:07.440Z,15.79
2022-11-19T08:43:35.513Z,15.06
2022-11-19T08:46:03.759Z,14.51
2022-11-19T08:48:32.076Z,14.06
2022-11-19T08:51:07.757Z,13.04
2022-11-19T08:53:35.801Z,13.49
2022-11-19T08:56:04.388Z,12.91
2022-11-19T08:58:32.989Z,13.04
2022-11-19T09:01:01.105Z,13.30
2022-11-19T09:03:29.436Z,12.40
2022-11-19T09:06:01.401Z,12.09
2022-11-19T09:08:30.090Z,12.48
2022-11-19T09:10:58.383Z,11.16
2022-11-19T09:13:26.651Z,12.08
2022-11-19T09:15:54.833Z,11.09
2022-11-19T09:18:23.010Z,11.33
2022-11-19T09:20:56.102Z,10.93
2022-11-19T09:23:26.129Z,10.58
2022-11-19T09:26:03.455Z,10.77
2022-11-19T09:28:31.999Z,11.12
2022-11-19T09:31:04.799Z,10.83
2022-11-19T09:33:35.720Z,11.51
2022-11-19T09:36:04.518Z,11.71
2022-11-19T09:38:32.799Z,12.05
2022-11-19T09:41:26.143Z,12.22
2022-11-19T09:44:06.340Z,12.69
2022-11-19T09:47:02.305Z,12.29
2022-11-19T09:49:53.921Z,12.78
2022-11-19T09:52:25.250Z,13.28
2022-11-19T09:54:57.167Z,12.98
2022-11-19T09:57:48.030Z,13.09
2022-11-19T10:00:26.054Z,13.37
2022-11-19T10:02:55.877Z,13.73
2022-11-19T10:05:34.775Z,13.95
2022-11-19T10:08:09.088Z,15.07
2022-11-19T10:10:47.071Z,15.40
2022-11-19T10:13:33.486Z,15.47
2022-11-19T10:16:36.667Z,14.70
2022-11-19T10:19:42.495Z,14.25
2022-11-19T10:22:22.352Z,14.23
2022-11-19T10:25:24.288Z,14.25
2022-11-19T10:27:54.559Z,14.18
2022-11-19T10:30:25.256Z,14.12
2022-11-19T10:33:01.426Z,13.99
2022-11-19T10:35:46.564Z,13.38
2022-11-19T10:38:35.630Z,13.29
2022-11-19T10:41:26.837Z,12.86
2022-11-19T10:44:03.096Z,12.51
2022-11-19T10:46:31.302Z,13.05
2022-11-19T10:49:01.106Z,12.75
2022-11-19T10:51:33.884Z,12.82
2022-11-19T10:54:05.327Z,12.58
2022-11-19T10:56:39.632Z,12.84
2022-11-19T10:59:17.460Z,12.83
2022-11-19T11:01:50.746Z,12.92
2022-11-19T11:04:21.794Z,12.87
2022-11-19T11:07:01.519Z,12.73
2022-11-19T11:09:37.775Z,13.22
2022-11-19T11:12:17.323Z,12.68
2022-11-19T11:14:47.242Z,12.74
2022-11-19T11:17:27.954Z,12.20
2022-11-19T11:20:20.542Z,12.29
2022-11-19T11:22:51.548Z,12.32
2022-11-19T11:25:19.600Z,12.24
2022-11-19T11:28:23.653Z,12.51
2022-11-19T11:30:54.805Z,12.68
2022-11-19T11:33:39.663Z,13.27
2022-11-19T11:36:14.335Z,13.52
2022-11-19T11:38:50.560Z,13.37
2022-11-19T11:44:20.674Z,13.87
2022-11-19T11:46:51.949Z,14.06
2022-11-19T11:49:35.554Z,14.27
2022-11-19T11:52:09.795Z,14.58
2022-11-19T11:54:53.411Z,15.03
2022-11-19T11:57:24.648Z,15.39
2022-11-19T11:59:53.341Z,15.32
2022-11-19T12:02:41.825Z,15.15
2022-11-19T12:05:18.380Z,15.67
2022-11-19T12:07:53.018Z,16.74
2022-11-19T12:10:40.800Z,16.44
2022-11-19T12:13:27.398Z,17.30
2022-11-19T12:16:27.714Z,17.40
2022-11-19T12:18:58.513Z,17.48
2022-11-19T12:21:57.530Z,16.99
2022-11-19T12:24:57.637Z,17.26
2022-11-19T12:27:25.713Z,17.16
2022-11-19T12:29:59.928Z,17.82
2022-11-19T12:32:59.802Z,17.52
2022-11-19T12:35:37.115Z,17.93
2022-11-19T12:38:24.336Z,17.59
2022-11-19T12:41:33.233Z,18.11
2022-11-19T12:44:03.869Z,18.23
2022-11-19T12:46:37.678Z,17.29
2022-11-19T12:49:39.316Z,17.87
2022-11-19T12:52:35.329Z,18.06
2022-11-19T12:55:16.498Z,18.15
2022-11-19T12:58:04.941Z,18.03
2022-11-19T13:00:40.964Z,18.27
2022-11-19T13:03:09.309Z,18.35
2022-11-19T13:05:56.084Z,18.31
2022-11-19T13:08:40.226Z,18.63
2022-11-19T13:11:16.386Z,18.94
2022-11-19T13:13:51.372Z,18.68
2022-11-19T13:16:22.764Z,18.81
2022-11-19T13:18:54.635Z,18.78
2022-11-19T13:21:48.498Z,19.36
2022-11-19T13:24:38.268Z,19.24
2022-11-19T13:27:12.519Z,19.36
2022-11-19T13:29:45.687Z,19.09
2022-11-19T13:32:36.617Z,19.45
2022-11-19T13:35:34.633Z,19.55
2022-11-19T13:38:12.331Z,18.92
2022-11-19T13:40:55.475Z,19.00
2022-11-19T13:43:32.834Z,19.27
2022-11-19T13:46:13.193Z,19.01
2022-11-19T13:48:51.313Z,19.37
2022-11-19T13:51:42.923Z,18.85
2022-11-19T13:54:27.622Z,18.87
2022-11-19T13:56:58.405Z,18.76
2022-11-19T13:59:29.754Z,19.15
2022-11-19T14:02:36.819Z,19.13
2022-11-19T14:05:24.235Z,19.24
2022-11-19T14:08:07.559Z,19.25
2022-11-19T14:10:38.602Z,19.48
2022-11-19T14:13:18.858Z,19.53
2022-11-19T14:16:13.025Z,19.04
2022-11-19T14:18:54.733Z,19.41
2022-11-19T14:21:25.983Z,19.37
2022-11-19T14:23:54.036Z,18.92
2022-11-19T14:26:40.533Z,19.21
2022-11-19T14:29:27.337Z,19.27
2022-11-19T14:32:01.962Z,19.24
2022-11-19T14:34:35.822Z,19.51
2022-11-19T14:37:29.970Z,18.73
2022-11-19T14:40:08.768Z,19.08
2022-11-19T14:42:37.245Z,19.17
2022-11-19T14:45:05.223Z,19.64
2022-11-19T14:47:42.402Z,18.99
2022-11-19T14:50:26.202Z,19.15
2022-11-19T14:52:57.890Z,18.77
2022-11-19T14:55:30.543Z,19.57
2022-11-19T14:58:04.080Z,18.88
2022-11-19T15:00:36.846Z,19.20
2022-11-19T15:03:12.544Z,19.08
2022-11-19T15:05:44.005Z,19.16
2022-11-19T15:08:18.093Z,19.25
2022-11-19T15:11:09.182Z,19.60
2022-11-19T15:13:38.377Z,19.45
2022-11-19T15:16:15.253Z,19.36
2022-11-19T15:19:01.384Z,19.11
2022-11-19T15:22:07.758Z,19.66
2022-11-19T15:24:58.587Z,19.37
2022-11-19T15:27:45.293Z,19.36
2022-11-19T15:30:41.105Z,19.56
2022-11-19T15:33:41.605Z,19.57
2022-11-19T15:36:18.977Z,20.01
2022-11-19T15:38:52.132Z,19.76
2022-11-19T15:41:24.277Z,19.85
2022-11-19T15:43:56.529Z,19.97
2022-11-19T15:46:38.989Z,19.65
2022-11-19T15:49:10.284Z,20.28
2022-11-19T15:51:57.300Z,20.06
2022-11-19T15:54:30.994Z,19.93
2022-11-19T15:57:04.700Z,20.38
2022-11-19T15:59:37.797Z,20.98
2022-11-19T16:02:19.337Z,20.67
2022-11-19T16:04:50.134Z,20.86
2022-11-19T16:07:24.250Z,20.58
2022-11-19T16:09:53.237Z,20.97
2022-11-19T16:12:24.715Z,20.99
2022-11-19T16:14:53.774Z,21.06
2022-11-19T16:17:25.074Z,21.07
2022-11-19T16:20:15.270Z,21.22
2022-11-19T16:23:00.867Z,21.83
2022-11-19T16:25:41.239Z,21.52
2022-11-19T16:28:19.861Z,22.01
2022-11-19T16:30:54.184Z,21.43
2022-11-19T16:33:25.549Z,22.57
2022-11-19T16:36:11.817Z,22.06
2022-11-19T16:38:42.826Z,22.27
2022-11-19T16:41:12.927Z,22.44
2022-11-19T16:44:11.733Z,22.88
2022-11-19T16:47:14.117Z,22.68
2022-11-19T16:49:51.022Z,22.91
2022-11-19T16:52:34.160Z,22.14
2022-11-19T16:55:04.705Z,22.50
2022-11-19T16:57:32.924Z,22.72
2022-11-19T17:00:05.113Z,22.79
2022-11-19T17:02:39.819Z,22.88
2022-11-19T17:05:11.443Z,23.06
2022-11-19T17:07:42.496Z,23.25
2022-11-19T17:10:13.471Z,23.25
2022-11-19T17:12:54.212Z,23.90
2022-11-19T17:15:38.951Z,23.37
2022-11-19T17:18:20.284Z,23.38
2022-11-19T17:20:51.097Z,23.71
2022-11-19T17:23:28.118Z,24.13
2022-11-19T17:25:59.333Z,23.58
2022-11-19T17:28:41.423Z,23.89
2022-11-19T17:31:20.167Z,23.56
2022-11-19T17:34:04.684Z,24.21
2022-11-19T17:36:33.086Z,24.27
2022-11-19T17:39:01.463Z,23.17
2022-11-19T17:41:29.696Z,23.94
2022-11-19T17:43:57.813Z,23.59
2022-11-19T17:46:28.663Z,23.61
2022-11-19T17:48:56.830Z,23.09
2022-11-19T17:51:26.543Z,23.68
2022-11-19T17:53:55.176Z,23.36
2022-11-19T17:56:28.631Z,23.36
2022-11-19T17:58:57.142Z,23.57
2022-11-19T18:01:25.293Z,23.15
2022-11-19T18:03:53.433Z,24.04
2022-11-19T18:06:21.492Z,23.12
2022-11-19T18:08:49.725Z,23.71
2022-11-19T18:11:21.410Z,23.35
2022-11-19T18:13:52.115Z,23.82
2022-11-19T18:16:22.663Z,23.92
2022-11-19T18:18:51.344Z,24.11
2022-11-19T18:21:22.410Z,23.23
2022-11-19T18:23:51.953Z,22.88
2022-11-19T18:26:22.237Z,23.47
2022-11-19T18:28:50.811Z,24.09
2022-11-19T18:31:24.766Z,23.94
2022-11-19T18:33:53.561Z,23.65
2022-11-19T18:36:22.637Z,23.86
2022-11-19T18:38:51.098Z,23.68
2022-11-19T18:41:19.276Z,23.77
2022-11-19T18:43:48.384Z,23.61
2022-11-19T18:46:16.858Z,23.85
2022-11-19T18:48:44.936Z,23.73
2022-11-19T18:51:13.078Z,24.09
2022-11-19T18:53:41.803Z,24.41
2022-11-19T18:56:17.759Z,24.18
2022-11-19T18:58:46.333Z,23.71
2022-11-19T19:01:14.423Z,24.15
2022-11-19T19:03:42.818Z,24.57
2022-11-19T19:06:11.402Z,24.24
2022-11-19T19:08:39.585Z,23.54
2022-11-19T19:11:08.504Z,23.99
2022-11-19T19:13:37.026Z,24.04
2022-11-19T19:16:05.436Z,24.71
2022-11-19T19:18:33.533Z,24.54
2022-11-19T19:21:01.973Z,24.86
2022-11-19T19:23:30.258Z,24.49
2022-11-19T19:25:58.866Z,25.09
2022-11-19T19:28:27.132Z,24.18
2022-11-19T19:30:59.057Z,25.95
2022-11-19T19:33:27.496Z,25.79
2022-11-19T19:35:55.878Z,24.99
2022-11-19T19:38:24.672Z,24.65
2022-11-19T19:40:52.950Z,24.27
2022-11-19T19:43:20.949Z,24.44
2022-11-19T19:45:49.413Z,24.53
2022-11-19T19:48:18.102Z,24.74
2022-11-19T19:50:52.008Z,23.98
2022-11-19T19:53:20.120Z,24.38
2022-11-19T19:55:48.467Z,24.44
2022-11-19T19:58:16.614Z,24.30
2022-11-19T20:00:44.887Z,24.39
2022-11-19T20:03:13.105Z,25.35
2022-11-19T20:05:48.479Z,24.61
2022-11-19T20:08:16.861Z,25.43
2022-11-19T20:10:44.849Z,25.62
2022-11-19T20:13:12.998Z,24.91
2022-11-19T20:15:41.168Z,25.81
2022-11-19T20:18:09.221Z,25.63
2022-11-19T20:20:37.619Z,24.73
2022-11-19T20:23:05.593Z,24.72
2022-11-19T20:25:33.876Z,25.39
2022-11-19T20:28:02.160Z,24.82
2022-11-19T20:30:30.332Z,25.52
2022-11-19T20:32:58.211Z,25.75
2022-11-19T20:35:26.321Z,24.77
2022-11-19T20:37:54.459Z,23.88
2022-11-19T20:40:23.128Z,24.20
2022-11-19T20:42:51.633Z,24.34
2022-11-19T20:45:19.811Z,24.01
2022-11-19T20:47:48.860Z,23.93
2022-11-19T20:50:17.403Z,23.78
2022-11-19T20:52:45.614Z,23.80
2022-11-19T20:55:13.957Z,23.70
2022-11-19T20:57:42.752Z,23.81
2022-11-19T21:00:12.054Z,24.59
2022-11-19T21:02:40.133Z,24.53
2022-11-19T21:05:08.659Z,23.61
2022-11-19T21:07:36.848Z,23.95
2022-11-19T21:10:07.976Z,24.00
2022-11-19T21:12:36.732Z,24.72
2022-11-19T21:15:05.319Z,24.80
2022-11-19T21:17:33.497Z,24.26
2022-11-19T21:20:01.885Z,24.40
2022-11-19T21:22:29.956Z,24.26
2022-11-19T21:24:58.138Z,24.88
2022-11-19T21:27:26.677Z,25.18
2022-11-19T21:29:55.416Z,24.79
2022-11-19T21:32:24.612Z,24.23
2022-11-19T21:34:52.902Z,25.15
2022-11-19T21:37:20.979Z,23.91
2022-11-19T21:39:49.355Z,23.91
2022-11-19T21:42:17.533Z,24.30
2022-11-19T21:44:45.815Z,24.07
2022-11-19T21:47:14.300Z,24.37
2022-11-19T21:49:42.423Z,24.33
2022-11-19T21:52:10.550Z,24.51
2022-11-19T21:54:39.372Z,24.48
2022-11-19T21:57:07.548Z,24.45
2022-11-19T21:59:35.700Z,24.96
2022-11-19T22:02:03.678Z,25.19
2022-11-19T22:04:32.201Z,25.08
2022-11-19T22:07:00.503Z,25.68
2022-11-19T22:09:28.725Z,25.73
2022-11-19T22:11:56.798Z,25.54
2022-11-19T22:14:24.982Z,25.70
2022-11-19T22:16:53.061Z,25.20
2022-11-19T22:19:21.331Z,24.81
2022-11-19T22:21:49.932Z,25.94
2022-11-19T22:24:18.237Z,25.20
2022-11-19T22:26:46.890Z,25.39
2022-11-19T22:29:15.105Z,24.99
2022-11-19T22:31:43.660Z,26.27
2022-11-19T22:34:12.500Z,25.21
2022-11-19T22:36:40.817Z,24.71
2022-11-19T22:39:09.393Z,24.73
2022-11-19T22:41:37.609Z,25.32
2022-11-19T22:44:05.886Z,24.27
2022-11-19T22:46:33.955Z,24.89
2022-11-19T22:49:02.286Z,24.41
2022-11-19T22:51:30.723Z,25.71
2022-11-19T22:53:59.015Z,25.79
2022-11-19T22:56:29.132Z,24.58
2022-11-19T22:58:57.853Z,25.14
2022-11-19T23:01:31.588Z,26.10
2022-11-19T23:04:02.810Z,25.73
2022-11-19T23:06:30.945Z,25.26
2022-11-19T23:08:59.329Z,25.84
2022-11-19T23:11:27.503Z,24.81
2022-11-19T23:13:55.590Z,24.51
2022-11-19T23:16:23.862Z,24.58
2022-11-19T23:18:53.473Z,25.75
2022-11-19T23:21:24.467Z,25.44
2022-11-19T23:23:53.208Z,25.27
2022-11-19T23:26:23.826Z,24.89
2022-11-19T23:28:53.350Z,25.08
2022-11-19T23:31:24.114Z,25.63
2022-11-19T23:33:58.532Z,24.53
2022-11-19T23:36:38.583Z,24.71
2022-11-19T23:39:08.408Z,24.33
2022-11-19T23:41:36.655Z,24.87
2022-11-19T23:44:04.831Z,24.19
2022-11-19T23:46:35.466Z,24.67
2022-11-19T23:49:04.261Z,24.72
2022-11-19T23:51:35.832Z,24.91
2022-11-19T23:54:05.898Z,25.07
2022-11-19T23:56:35.703Z,25.44
2022-11-19T23:59:05.540Z,25.74
